sensor_id;sensor_type;location;lat;lon;timestamp;temperature;humidity
3402;DHT22;1714;49.756;8.610;2022-08-03T00:10:11;20.50;20.60
3402;DHT22;1714;49.756;8.610;2022-08-03T00:20:13;20.30;20.00
3402;DHT22;1714;49.756;8.610;2022-08-03T00:30:15;20.30;21.40
3402;DHT22;1714;49.756;8.610;2022-08-03T00:40:18;20.10;21.60
3402;DHT22;1714;49.756;8.610;2022-08-03T00:50:22;20.00;21.30
3402;DHT22;1714;49.756;8.610;2022-08-03T01:00:25;19.90;23.40
3402;DHT22;1714;49.756;8.610;2022-08-03T01:20:47;19.60;25.20
3402;DHT22;1714;49.756;8.610;2022-08-03T01:30:55;19.50;24.90
3402;DHT22;1714;49.756;8.610;2022-08-03T01:41:10;19.50;26.60
3402;DHT22;1714;49.756;8.610;2022-08-03T01:51:15;19.50;26.10
3402;DHT22;1714;49.756;8.610;2022-08-03T02:01:21;19.30;28.40
3402;DHT22;1714;49.756;8.610;2022-08-03T02:11:44;19.20;29.90
3402;DHT22;1714;49.756;8.610;2022-08-03T02:21:48;19.10;30.20
3402;DHT22;1714;49.756;8.610;2022-08-03T02:32:02;19.10;31.20
3402;DHT22;1714;49.756;8.610;2022-08-03T02:42:07;19.10;34.30
3402;DHT22;1714;49.756;8.610;2022-08-03T02:52:11;18.90;33.00
3402;DHT22;1714;49.756;8.610;2022-08-03T03:02:15;18.80;32.50
3402;DHT22;1714;49.756;8.610;2022-08-03T03:12:22;18.70;33.00
3402;DHT22;1714;49.756;8.610;2022-08-03T03:22:26;18.60;33.30
3402;DHT22;1714;49.756;8.610;2022-08-03T03:32:28;18.60;34.00
3402;DHT22;1714;49.756;8.610;2022-08-03T03:42:31;18.50;32.40
3402;DHT22;1714;49.756;8.610;2022-08-03T03:52:33;18.30;32.70
3402;DHT22;1714;49.756;8.610;2022-08-03T04:02:35;18.20;33.20
3402;DHT22;1714;49.756;8.610;2022-08-03T04:12:40;18.20;32.70
3402;DHT22;1714;49.756;8.610;2022-08-03T04:22:51;18.20;32.00
3402;DHT22;1714;49.756;8.610;2022-08-03T04:32:55;18.10;34.30
3402;DHT22;1714;49.756;8.610;2022-08-03T04:42:58;18.10;35.60
3402;DHT22;1714;49.756;8.610;2022-08-03T04:53:01;18.10;37.00
3402;DHT22;1714;49.756;8.610;2022-08-03T05:03:03;18.30;37.70
3402;DHT22;1714;49.756;8.610;2022-08-03T05:13:23;18.60;36.00
3402;DHT22;1714;49.756;8.610;2022-08-03T05:23:25;18.40;37.60
3402;DHT22;1714;49.756;8.610;2022-08-03T05:33:27;18.60;37.70
3402;DHT22;1714;49.756;8.610;2022-08-03T05:43:29;18.90;36.40
3402;DHT22;1714;49.756;8.610;2022-08-03T05:53:35;18.80;35.90
3402;DHT22;1714;49.756;8.610;2022-08-03T06:03:38;19.10;33.80
3402;DHT22;1714;49.756;8.610;2022-08-03T06:13:41;19.40;32.40
3402;DHT22;1714;49.756;8.610;2022-08-03T06:23:50;19.50;33.80
3402;DHT22;1714;49.756;8.610;2022-08-03T06:33:54;19.90;35.50
3402;DHT22;1714;49.756;8.610;2022-08-03T06:44:16;20.10;35.00
3402;DHT22;1714;49.756;8.610;2022-08-03T06:54:19;20.40;30.20
3402;DHT22;1714;49.756;8.610;2022-08-03T07:04:22;20.90;28.50
3402;DHT22;1714;49.756;8.610;2022-08-03T07:14:24;21.40;23.50
3402;DHT22;1714;49.756;8.610;2022-08-03T07:24:27;22.00;21.60
3402;DHT22;1714;49.756;8.610;2022-08-03T07:34:30;23.70;17.30
3402;DHT22;1714;49.756;8.610;2022-08-03T07:44:32;25.10;15.00
3402;DHT22;1714;49.756;8.610;2022-08-03T07:54:34;26.00;12.70
3402;DHT22;1714;49.756;8.610;2022-08-03T08:04:36;26.80;11.60
3402;DHT22;1714;49.756;8.610;2022-08-03T08:14:38;27.70;9.50
3402;DHT22;1714;49.756;8.610;2022-08-03T08:24:41;28.20;7.90
3402;DHT22;1714;49.756;8.610;2022-08-03T08:34:44;28.70;8.50
3402;DHT22;1714;49.756;8.610;2022-08-03T08:44:46;29.30;8.80
3402;DHT22;1714;49.756;8.610;2022-08-03T08:54:48;29.70;5.90
3402;DHT22;1714;49.756;8.610;2022-08-03T09:04:51;30.00;5.40
3402;DHT22;1714;49.756;8.610;2022-08-03T09:14:54;30.40;6.10
3402;DHT22;1714;49.756;8.610;2022-08-03T09:25:16;30.80;4.00
3402;DHT22;1714;49.756;8.610;2022-08-03T09:35:28;31.40;2.80
3402;DHT22;1714;49.756;8.610;2022-08-03T09:46:03;32.00;3.40
3402;DHT22;1714;49.756;8.610;2022-08-03T09:56:05;32.20;2.40
3402;DHT22;1714;49.756;8.610;2022-08-03T10:06:26;32.70;1.30
3402;DHT22;1714;49.756;8.610;2022-08-03T10:16:34;33.90;1.90
3402;DHT22;1714;49.756;8.610;2022-08-03T10:26:39;34.10;1.00
3402;DHT22;1714;49.756;8.610;2022-08-03T10:36:48;34.20;1.00
3402;DHT22;1714;49.756;8.610;2022-08-03T10:46:54;34.40;1.00
3402;DHT22;1714;49.756;8.610;2022-08-03T10:56:56;34.40;1.00
3402;DHT22;1714;49.756;8.610;2022-08-03T11:07:20;34.70;1.00
3402;DHT22;1714;49.756;8.610;2022-08-03T11:17:26;35.30;1.00
3402;DHT22;1714;49.756;8.610;2022-08-03T11:27:30;35.10;1.00
3402;DHT22;1714;49.756;8.610;2022-08-03T11:37:32;35.60;1.00
3402;DHT22;1714;49.756;8.610;2022-08-03T11:47:37;35.50;1.00
3402;DHT22;1714;49.756;8.610;2022-08-03T11:57:50;36.10;1.00
3402;DHT22;1714;49.756;8.610;2022-08-03T12:08:15;35.90;1.00
3402;DHT22;1714;49.756;8.610;2022-08-03T12:18:18;35.80;1.00
3402;DHT22;1714;49.756;8.610;2022-08-03T12:28:22;36.30;1.00
3402;DHT22;1714;49.756;8.610;2022-08-03T12:38:38;36.70;1.00
3402;DHT22;1714;49.756;8.610;2022-08-03T12:49:11;36.70;1.00
3402;DHT22;1714;49.756;8.610;2022-08-03T12:59:26;37.00;1.00
3402;DHT22;1714;49.756;8.610;2022-08-03T13:09:51;37.20;1.00
3402;DHT22;1714;49.756;8.610;2022-08-03T13:19:54;37.10;1.00
3402;DHT22;1714;49.756;8.610;2022-08-03T13:29:56;37.20;1.00
3402;DHT22;1714;49.756;8.610;2022-08-03T13:40:00;37.70;1.00
3402;DHT22;1714;49.756;8.610;2022-08-03T13:50:04;37.30;1.00
3402;DHT22;1714;49.756;8.610;2022-08-03T14:00:07;37.40;1.00
3402;DHT22;1714;49.756;8.610;2022-08-03T14:10:09;37.60;1.00
3402;DHT22;1714;49.756;8.610;2022-08-03T14:20:11;37.60;1.00
3402;DHT22;1714;49.756;8.610;2022-08-03T14:30:35;37.60;1.00
3402;DHT22;1714;49.756;8.610;2022-08-03T14:40:39;37.60;1.00
3402;DHT22;1714;49.756;8.610;2022-08-03T14:50:41;37.20;1.00
3402;DHT22;1714;49.756;8.610;2022-08-03T15:00:52;37.30;1.00
3402;DHT22;1714;49.756;8.610;2022-08-03T15:10:56;37.50;1.00
3402;DHT22;1714;49.756;8.610;2022-08-03T15:21:08;37.20;1.00
3402;DHT22;1714;49.756;8.610;2022-08-03T15:31:31;37.30;1.00
3402;DHT22;1714;49.756;8.610;2022-08-03T15:41:34;37.40;1.00
3402;DHT22;1714;49.756;8.610;2022-08-03T15:51:40;36.70;1.00
3402;DHT22;1714;49.756;8.610;2022-08-03T16:01:44;36.90;1.00
3402;DHT22;1714;49.756;8.610;2022-08-03T16:11:48;36.70;1.00
3402;DHT22;1714;49.756;8.610;2022-08-03T16:21:49;36.70;1.00
3402;DHT22;1714;49.756;8.610;2022-08-03T16:31:52;36.50;1.00
3402;DHT22;1714;49.756;8.610;2022-08-03T16:41:56;36.20;1.00
3402;DHT22;1714;49.756;8.610;2022-08-03T16:52:00;35.90;1.00
3402;DHT22;1714;49.756;8.610;2022-08-03T17:02:03;35.40;1.00
3402;DHT22;1714;49.756;8.610;2022-08-03T17:12:09;34.80;1.00
3402;DHT22;1714;49.756;8.610;2022-08-03T17:22:16;34.20;1.00
3402;DHT22;1714;49.756;8.610;2022-08-03T17:32:20;33.50;6.30
3402;DHT22;1714;49.756;8.610;2022-08-03T17:42:25;32.90;1.00
3402;DHT22;1714;49.756;8.610;2022-08-03T17:52:42;32.50;1.70
3402;DHT22;1714;49.756;8.610;2022-08-03T18:13:25;31.50;4.50
3402;DHT22;1714;49.756;8.610;2022-08-03T18:23:32;31.20;3.10
3402;DHT22;1714;49.756;8.610;2022-08-03T18:33:39;30.70;6.10
3402;DHT22;1714;49.756;8.610;2022-08-03T18:44:06;30.30;7.00
3402;DHT22;1714;49.756;8.610;2022-08-03T18:55:16;29.80;9.00
3402;DHT22;1714;49.756;8.610;2022-08-03T19:05:58;29.40;11.70
3402;DHT22;1714;49.756;8.610;2022-08-03T19:16:37;29.00;11.60
3402;DHT22;1714;49.756;8.610;2022-08-03T19:26:43;28.70;10.20
3402;DHT22;1714;49.756;8.610;2022-08-03T19:36:50;28.40;10.00
3402;DHT22;1714;49.756;8.610;2022-08-03T19:47:05;28.10;10.00
3402;DHT22;1714;49.756;8.610;2022-08-03T19:57:18;27.80;10.20
3402;DHT22;1714;49.756;8.610;2022-08-03T20:07:20;27.60;11.40
3402;DHT22;1714;49.756;8.610;2022-08-03T20:17:26;27.30;13.10
3402;DHT22;1714;49.756;8.610;2022-08-03T20:27:53;27.00;13.00
3402;DHT22;1714;49.756;8.610;2022-08-03T20:38:13;26.90;12.20
3402;DHT22;1714;49.756;8.610;2022-08-03T20:48:17;26.80;12.20
3402;DHT22;1714;49.756;8.610;2022-08-03T20:58:20;26.60;12.60
3402;DHT22;1714;49.756;8.610;2022-08-03T21:08:23;26.40;12.50
3402;DHT22;1714;49.756;8.610;2022-08-03T21:18:27;26.40;11.70
3402;DHT22;1714;49.756;8.610;2022-08-03T21:28:31;26.30;12.10
3402;DHT22;1714;49.756;8.610;2022-08-03T21:38:34;26.10;12.80
3402;DHT22;1714;49.756;8.610;2022-08-03T21:48:38;26.00;14.00
3402;DHT22;1714;49.756;8.610;2022-08-03T21:58:55;25.90;13.40
3402;DHT22;1714;49.756;8.610;2022-08-03T22:09:00;25.70;13.00
3402;DHT22;1714;49.756;8.610;2022-08-03T22:19:02;25.60;13.60
3402;DHT22;1714;49.756;8.610;2022-08-03T22:29:07;25.40;15.00
3402;DHT22;1714;49.756;8.610;2022-08-03T22:39:09;25.20;17.00
3402;DHT22;1714;49.756;8.610;2022-08-03T22:49:27;25.00;18.00
3402;DHT22;1714;49.756;8.610;2022-08-03T22:59:30;24.80;19.10
3402;DHT22;1714;49.756;8.610;2022-08-03T23:09:42;24.50;20.10
3402;DHT22;1714;49.756;8.610;2022-08-03T23:19:45;24.30;20.60
3402;DHT22;1714;49.756;8.610;2022-08-03T23:29:48;24.10;21.00
3402;DHT22;1714;49.756;8.610;2022-08-03T23:39:52;23.80;22.30
3402;DHT22;1714;49.756;8.610;2022-08-03T23:49:55;23.60;23.30
